Baikonur, Kazakhstan
Current Conditions -  °F | °C
As of 12:00 AM on Friday 24 Oct 2014 (Local Time) from UAOO Reporting Station
Clear Clear  
Wind Chill: 41°   Ceiling: Unl
Heat Index: 45°   Visibility: 6mi
Dew Point: 41°   Wind: 7mph
Humidity: 87%   Direction: 200°SSW
Pressure: 30.09"   Gusts: NA
Location:  46.1°N, 63°E
Report Text: UAOO 231900Z 20003MPS CAVOK 07/05 Q1019 NOSIG RMK QFE752/1003
Loading
Personal Weather Stations






























Interactive Weather Map
Tropical Storm Tracking
New forecast layout! Learn more

10-Day Weather Forecast

Advertisements
Track Severe Weather on mobile